LIMF/TRN METAR and TAF weather

Enter ICAO airport designator
Station Type Date Time Source
LIMF METAR 2022/01/29 00:50 UTC NOAA

LIMF 290050Z 25005KT CAVOK 04/M07 Q1028


Station Type Date Time Source
LIMF Decoded METAR 2022/01/29 00:50 UTC NOAA

Torino / Caselle, Italy (LIMF) 45-13N 007-39E 287M
Jan 28, 2022 - 07:50 PM EST / 2022.01.29 0050 UTC
Wind: from the WSW (250 degrees) at 6 MPH (5 KT):0
Visibility: greater than 7 mile(s):0
Temperature: 39 F (4 C)
Dew Point: 19 F (-7 C)
Relative Humidity: 44%
Pressure (altimeter): 30.36 in. Hg (1028 hPa)
ob: LIMF 290050Z 25005KT CAVOK 04/M07 Q1028
cycle: 1

Station Type Date Time Source
LIMF TAF 2022/01/28 18:25 UTC NOAA

TAF LIMF 281700Z 2818/2918 VRB05KT CAVOK
TEMPO 2900/2908 4000 BR

Example: see airport list